Time;durP1;ratioP1;P1;durP2;ratioP2;P2;SDS_P1;SDS_P2;PMS_P1;PMS_P2;Temp;Humidity;BMP_temperature;BMP_pressure;BME280_temperature;BME280_humidity;BME280_pressure;Samples;Min_cycle;Max_cycle;Signal;HPM_P1;HPM_P2
2023/08/25 00:00:38;;;;;;;1.83;1.30;;;22.70;81.70;;;;;;5051234;28;20045;-79
2023/08/25 00:03:41;;;;;;;3.45;1.60;;;22.70;81.60;;;;;;5037874;28;20029;-79
2023/08/25 00:06:07;;;;;;;2.33;1.70;;;22.80;81.40;;;;;;5023728;28;20018;-78
2023/08/25 00:08:34;;;;;;;1.25;1.10;;;22.70;81.50;;;;;;5021255;28;20037;-79
2023/08/25 00:10:59;;;;;;;1.63;1.20;;;22.70;81.50;;;;;;5038558;28;20022;-77
2023/08/25 00:13:25;;;;;;;3.35;2.47;;;22.70;81.40;;;;;;5033498;28;20029;-78
2023/08/25 00:15:51;;;;;;;1.60;1.50;;;22.70;81.30;;;;;;5024915;28;20053;-78
2023/08/25 00:18:16;;;;;;;2.40;1.40;;;22.70;81.30;;;;;;5023412;28;20157;-78
2023/08/25 00:24:07;;;;;;;1.67;1.45;;;22.60;81.20;;;;;;5025103;28;20435;-80
2023/08/25 00:26:33;;;;;;;5.32;1.88;;;22.60;81.40;;;;;;5008401;28;20456;-77
2023/08/25 00:28:59;;;;;;;2.40;1.73;;;22.60;81.40;;;;;;5005619;28;20164;-77
2023/08/25 00:31:24;;;;;;;2.53;1.90;;;22.60;82.10;;;;;;5009035;28;20038;-78
2023/08/25 00:33:50;;;;;;;4.32;1.58;;;22.50;81.30;;;;;;5025893;28;20492;-78
2023/08/25 00:36:17;;;;;;;2.38;1.95;;;22.50;81.20;;;;;;5023860;28;20038;-78
2023/08/25 00:38:42;;;;;;;4.03;1.70;;;22.50;81.30;;;;;;5016935;28;20429;-75
2023/08/25 00:41:08;;;;;;;3.05;1.92;;;22.50;81.30;;;;;;5011460;28;20026;-75
2023/08/25 00:43:34;;;;;;;3.42;1.77;;;22.50;81.30;;;;;;5014280;28;20060;-75
2023/08/25 00:46:01;;;;;;;2.00;1.67;;;22.50;81.20;;;;;;5007020;28;20049;-75
2023/08/25 00:48:28;;;;;;;2.55;1.48;;;22.50;81.10;;;;;;5014913;28;20040;-75
2023/08/25 00:50:54;;;;;;;1.70;1.52;;;22.50;81.10;;;;;;5015146;28;20056;-75
2023/08/25 00:53:22;;;;;;;1.95;1.75;;;22.50;81.00;;;;;;5008686;28;20366;-76
2023/08/25 00:56:08;;;;;;;2.80;1.80;;;22.40;81.00;;;;;;5017786;28;20018;-79
2023/08/25 00:58:34;;;;;;;1.48;1.35;;;22.40;80.90;;;;;;5026135;28;20505;-79
2023/08/25 01:01:04;;;;;;;1.88;1.35;;;22.30;81.00;;;;;;5010369;28;20375;-75
2023/08/25 01:03:30;;;;;;;11.52;1.50;;;22.40;81.00;;;;;;5022276;28;20508;-78
2023/08/25 01:05:56;;;;;;;1.90;1.35;;;22.30;80.90;;;;;;5027269;28;20030;-78
2023/08/25 01:08:22;;;;;;;3.42;1.63;;;22.30;80.80;;;;;;5015306;28;20092;-79
2023/08/25 01:11:02;;;;;;;1.95;1.30;;;22.30;80.80;;;;;;5022668;28;20051;-77
2023/08/25 01:13:43;;;;;;;2.00;1.55;;;22.20;80.60;;;;;;5009167;28;20045;-76
2023/08/25 01:16:12;;;;;;;1.35;1.17;;;22.20;80.70;;;;;;5016301;28;20028;-76
2023/08/25 01:18:41;;;;;;;3.00;1.42;;;22.20;80.70;;;;;;5011027;28;20525;-76
2023/08/25 01:21:08;;;;;;;2.38;1.67;;;22.20;81.30;;;;;;5012570;28;20028;-76
2023/08/25 01:24:12;;;;;;;1.50;1.30;;;22.20;80.70;;;;;;5028383;28;20077;-79
2023/08/25 01:26:38;;;;;;;3.30;2.00;;;22.10;80.50;;;;;;5021171;28;20033;-80
2023/08/25 01:29:04;;;;;;;1.70;1.20;;;22.10;80.50;;;;;;5028249;28;20098;-80
2023/08/25 01:31:30;;;;;;;4.78;1.60;;;22.10;80.60;;;;;;5026639;28;20030;-80
2023/08/25 01:33:56;;;;;;;3.08;2.08;;;22.00;80.50;;;;;;5022794;28;20190;-76
2023/08/25 01:36:30;;;;;;;1.67;1.42;;;22.00;80.60;;;;;;5014113;28;20034;-79
2023/08/25 01:39:07;;;;;;;1.95;1.50;;;22.00;80.60;;;;;;5028734;28;20085;-79
2023/08/25 01:41:54;;;;;;;1.98;1.75;;;22.00;80.60;;;;;;5026158;28;20018;-79
2023/08/25 01:44:21;;;;;;;2.70;1.77;;;22.00;80.60;;;;;;5018234;28;20026;-79
2023/08/25 01:46:51;;;;;;;1.95;1.75;;;22.00;80.60;;;;;;5034203;28;20032;-76
2023/08/25 01:49:18;;;;;;;2.10;1.88;;;21.90;80.70;;;;;;5016687;28;20120;-76
2023/08/25 01:51:45;;;;;;;1.98;1.60;;;21.90;80.80;;;;;;5018456;28;20033;-76
2023/08/25 01:54:13;;;;;;;2.50;1.85;;;21.90;80.80;;;;;;5020430;28;20057;-80
2023/08/25 01:56:39;;;;;;;1.90;1.38;;;21.90;80.80;;;;;;5023572;28;20050;-76
2023/08/25 01:59:04;;;;;;;3.90;1.10;;;22.00;80.90;;;;;;5014557;28;20068;-80
2023/08/25 02:01:30;;;;;;;2.25;1.98;;;22.00;80.90;;;;;;5027094;28;20046;-80
2023/08/25 02:03:57;;;;;;;1.85;1.63;;;22.00;81.00;;;;;;5025154;28;20090;-80
2023/08/25 02:06:22;;;;;;;3.42;1.67;;;22.00;81.10;;;;;;5024132;28;20548;-80
2023/08/25 02:08:48;;;;;;;2.20;1.75;;;22.10;81.20;;;;;;5035480;28;20107;-76
2023/08/25 02:11:14;;;;;;;2.38;1.58;;;22.00;81.20;;;;;;5017050;28;20339;-76
2023/08/25 02:13:40;;;;;;;2.47;2.15;;;22.10;81.30;;;;;;5013669;28;20037;-76
2023/08/25 02:16:07;;;;;;;3.72;1.58;;;22.10;81.30;;;;;;5012588;28;20037;-76
2023/08/25 02:18:32;;;;;;;1.83;1.65;;;22.10;81.40;;;;;;4995253;28;20021;-75
2023/08/25 02:20:58;;;;;;;1.85;1.30;;;22.10;81.40;;;;;;5010348;28;20042;-76
2023/08/25 02:23:24;;;;;;;1.67;1.20;;;22.10;81.30;;;;;;5014408;28;20026;-76
2023/08/25 02:25:51;;;;;;;2.65;2.03;;;22.20;81.20;;;;;;5010295;28;20036;-76
2023/08/25 02:28:16;;;;;;;2.03;1.38;;;22.20;81.30;;;;;;5012632;28;20044;-76
2023/08/25 02:30:42;;;;;;;2.67;1.42;;;22.20;81.40;;;;;;5014448;28;20034;-76
2023/08/25 02:33:07;;;;;;;1.38;1.27;;;22.20;81.40;;;;;;5015654;28;20042;-76
2023/08/25 02:35:33;;;;;;;2.97;1.80;;;22.20;81.40;;;;;;5022307;28;20041;-75
2023/08/25 02:38:04;;;;;;;1.70;1.40;;;22.20;81.60;;;;;;5014122;28;20353;-75
2023/08/25 02:40:30;;;;;;;2.90;1.40;;;22.20;81.70;;;;;;5002242;28;20453;-75
2023/08/25 02:42:59;;;;;;;1.90;1.52;;;22.20;81.80;;;;;;5006470;28;20080;-76
2023/08/25 02:45:25;;;;;;;2.30;1.58;;;22.20;81.80;;;;;;5024426;28;20481;-76
2023/08/25 02:47:54;;;;;;;2.30;1.52;;;22.20;81.80;;;;;;5013066;28;20024;-75
2023/08/25 02:50:21;;;;;;;2.50;2.03;;;22.30;81.90;;;;;;5013921;28;20038;-76
2023/08/25 02:52:47;;;;;;;1.90;1.65;;;22.30;81.90;;;;;;5009453;28;20069;-75
2023/08/25 02:55:16;;;;;;;2.10;1.30;;;22.30;82.00;;;;;;5017453;28;20079;-76
2023/08/25 02:57:45;;;;;;;3.13;2.47;;;22.30;81.90;;;;;;5019659;28;20358;-76
2023/08/25 03:00:13;;;;;;;3.10;1.95;;;22.40;81.90;;;;;;5006272;28;20037;-76
2023/08/25 03:02:39;;;;;;;3.38;1.70;;;22.30;82.00;;;;;;5013286;28;20050;-81
2023/08/25 03:05:06;;;;;;;2.60;1.50;;;22.30;82.20;;;;;;5011624;28;20465;-81
2023/08/25 03:07:32;;;;;;;1.52;1.42;;;22.30;82.20;;;;;;5014903;28;20025;-81
2023/08/25 03:09:58;;;;;;;3.35;1.92;;;22.30;82.20;;;;;;5010646;28;20037;-76
2023/08/25 03:12:24;;;;;;;1.75;1.20;;;22.40;82.30;;;;;;5030588;28;20100;-76
2023/08/25 03:14:50;;;;;;;2.05;1.45;;;22.40;82.20;;;;;;5009840;28;20040;-76
2023/08/25 03:17:17;;;;;;;3.25;2.05;;;22.40;82.10;;;;;;5003386;28;20489;-76
2023/08/25 03:19:43;;;;;;;2.35;1.98;;;22.50;82.10;;;;;;5013622;28;20693;-75
2023/08/25 03:22:08;;;;;;;2.80;1.75;;;22.50;82.10;;;;;;5010917;28;20034;-76
2023/08/25 03:24:34;;;;;;;6.68;2.70;;;22.50;82.20;;;;;;5012809;28;20025;-76
2023/08/25 03:27:00;;;;;;;2.05;1.65;;;22.50;82.10;;;;;;4997611;28;20037;-75
2023/08/25 03:29:25;;;;;;;3.80;1.85;;;22.50;82.10;;;;;;5011930;28;20117;-75
2023/08/25 03:31:52;;;;;;;2.53;2.28;;;22.50;82.10;;;;;;5012276;28;20030;-75
2023/08/25 03:34:18;;;;;;;4.07;2.50;;;22.50;82.20;;;;;;5011540;28;20044;-81
2023/08/25 03:36:45;;;;;;;2.92;1.98;;;22.50;82.40;;;;;;5010862;28;20053;-81
2023/08/25 03:39:12;;;;;;;2.40;1.80;;;22.50;82.50;;;;;;5008782;28;20080;-81
2023/08/25 03:41:37;;;;;;;2.92;2.22;;;22.50;82.60;;;;;;5019856;28;20042;-81
2023/08/25 03:44:03;;;;;;;2.35;2.03;;;22.40;82.60;;;;;;5003303;28;20440;-81
2023/08/25 03:46:29;;;;;;;3.40;2.22;;;22.40;82.70;;;;;;5008532;28;20429;-82
2023/08/25 03:48:56;;;;;;;2.45;2.00;;;22.40;82.60;;;;;;5009156;28;20065;-81
2023/08/25 03:51:22;;;;;;;5.03;2.38;;;22.40;82.60;;;;;;4990667;28;20551;-81
2023/08/25 03:53:48;;;;;;;3.08;2.08;;;22.50;82.60;;;;;;5010586;28;20057;-82
2023/08/25 03:56:13;;;;;;;3.28;2.22;;;22.50;82.60;;;;;;5019940;28;20032;-81
2023/08/25 03:58:39;;;;;;;3.53;2.40;;;22.50;82.70;;;;;;5013725;28;20085;-82
2023/08/25 04:01:05;;;;;;;3.25;2.13;;;22.50;82.80;;;;;;5012445;28;20049;-82
2023/08/25 04:03:31;;;;;;;2.28;1.67;;;22.40;82.80;;;;;;5011870;28;20040;-82
2023/08/25 04:05:56;;;;;;;3.72;1.95;;;22.40;82.80;;;;;;4991662;28;20141;-76
2023/08/25 04:08:23;;;;;;;3.47;2.17;;;22.40;82.70;;;;;;5009772;28;20484;-81
2023/08/25 04:10:48;;;;;;;2.50;1.77;;;22.50;82.80;;;;;;5009596;28;20030;-76
2023/08/25 04:13:14;;;;;;;3.00;2.22;;;22.40;82.80;;;;;;5009053;28;20037;-75
2023/08/25 04:15:40;;;;;;;3.78;2.25;;;22.40;82.90;;;;;;5012760;28;20038;-75
2023/08/25 04:18:05;;;;;;;3.88;2.75;;;22.50;82.90;;;;;;5007790;28;20022;-75
2023/08/25 04:20:32;;;;;;;2.55;2.15;;;22.40;82.80;;;;;;5014013;28;20101;-75
2023/08/25 04:23:01;;;;;;;2.17;1.80;;;22.50;82.90;;;;;;5010231;28;20030;-75
2023/08/25 04:25:29;;;;;;;2.42;1.80;;;22.40;83.00;;;;;;5010545;28;20041;-76
2023/08/25 04:27:58;;;;;;;3.88;2.88;;;22.50;83.10;;;;;;5008487;28;20022;-75
2023/08/25 04:30:24;;;;;;;3.95;2.22;;;22.40;83.10;;;;;;5022317;28;20049;-82
2023/08/25 04:32:50;;;;;;;4.85;2.55;;;22.40;83.20;;;;;;5013513;28;20393;-76
2023/08/25 04:35:16;;;;;;;3.67;2.10;;;22.40;83.30;;;;;;5016242;28;20030;-76
2023/08/25 04:37:47;;;;;;;2.08;1.80;;;22.40;83.20;;;;;;5011152;28;20034;-75
2023/08/25 04:40:15;;;;;;;2.83;1.80;;;22.40;83.10;;;;;;5007351;28;20722;-75
2023/08/25 04:42:41;;;;;;;3.00;2.20;;;22.50;83.10;;;;;;5011810;28;20061;-75
2023/08/25 04:45:12;;;;;;;4.50;2.38;;;22.50;83.00;;;;;;5017805;28;20037;-75
2023/08/25 04:47:38;;;;;;;3.33;2.33;;;22.50;83.10;;;;;;5010585;28;20041;-75
2023/08/25 04:50:05;;;;;;;3.03;2.00;;;22.50;83.10;;;;;;4997976;28;20076;-75
2023/08/25 04:52:31;;;;;;;2.42;1.67;;;22.50;83.10;;;;;;5008757;28;20030;-75
2023/08/25 04:54:56;;;;;;;1.35;1.15;;;22.50;83.10;;;;;;5001412;28;20042;-75
2023/08/25 04:57:22;;;;;;;2.10;1.88;;;22.50;83.00;;;;;;5019035;28;20046;-75
2023/08/25 04:59:48;;;;;;;2.88;1.85;;;22.50;83.00;;;;;;5011933;28;20030;-76
2023/08/25 05:02:14;;;;;;;2.85;2.40;;;22.50;83.00;;;;;;5017002;28;20065;-76
2023/08/25 05:04:39;;;;;;;2.92;1.98;;;22.50;83.00;;;;;;5020194;28;20055;-76
2023/08/25 05:07:05;;;;;;;3.20;1.80;;;22.50;83.20;;;;;;5011466;28;20390;-76
2023/08/25 05:09:31;;;;;;;4.20;2.35;;;22.50;83.30;;;;;;5014998;28;20120;-75
2023/08/25 05:11:57;;;;;;;3.47;2.42;;;22.50;83.40;;;;;;5012834;28;20097;-76
2023/08/25 05:14:22;;;;;;;3.22;2.42;;;22.50;83.50;;;;;;5026651;28;20044;-76
2023/08/25 05:16:48;;;;;;;2.90;2.15;;;22.50;83.60;;;;;;5027806;28;20030;-76
2023/08/25 05:19:13;;;;;;;4.78;2.50;;;22.40;83.60;;;;;;5009635;28;20512;-76
2023/08/25 05:21:40;;;;;;;3.38;2.60;;;22.50;83.60;;;;;;5012881;28;20022;-76
2023/08/25 05:24:20;;;;;;;6.78;3.17;;;22.50;83.70;;;;;;5010119;28;20053;-83
2023/08/25 05:26:51;;;;;;;3.70;3.15;;;22.50;83.60;;;;;;5010341;28;20018;-82
2023/08/25 05:29:24;;;;;;;4.30;3.05;;;22.50;83.60;;;;;;5009610;28;20054;-83
2023/08/25 05:31:50;;;;;;;3.10;2.33;;;22.50;83.70;;;;;;5010781;28;20116;-82
2023/08/25 05:34:16;;;;;;;3.80;2.55;;;22.50;83.80;;;;;;5008630;28;20085;-82
2023/08/25 05:36:43;;;;;;;2.58;2.10;;;22.60;83.70;;;;;;5016613;28;20361;-82
2023/08/25 05:39:09;;;;;;;2.92;2.40;;;22.60;83.60;;;;;;5007953;28;20034;-82
2023/08/25 05:41:35;;;;;;;4.07;3.08;;;22.60;83.50;;;;;;5009575;28;20037;-76
2023/08/25 05:44:01;;;;;;;3.38;2.35;;;22.60;83.50;;;;;;5007328;28;20397;-76
2023/08/25 05:46:30;;;;;;;3.67;2.58;;;22.70;83.50;;;;;;5013566;28;20547;-83
2023/08/25 05:48:57;;;;;;;6.85;2.97;;;22.70;83.50;;;;;;5018377;28;20029;-83
2023/08/25 05:51:24;;;;;;;4.10;2.60;;;22.70;83.30;;;;;;5014108;28;20029;-76
2023/08/25 05:53:50;;;;;;;3.60;2.28;;;22.80;83.30;;;;;;5011995;28;20587;-82
2023/08/25 05:56:16;;;;;;;3.08;1.92;;;22.80;83.20;;;;;;5017544;28;20455;-82
2023/08/25 05:58:42;;;;;;;4.60;2.38;;;22.80;83.20;;;;;;5014203;28;20034;-75
2023/08/25 06:01:08;;;;;;;3.63;2.63;;;22.80;83.20;;;;;;5016222;28;20431;-82
2023/08/25 06:03:35;;;;;;;5.10;2.33;;;22.90;83.10;;;;;;5015856;28;20567;-82
2023/08/25 06:06:00;;;;;;;2.10;1.58;;;22.90;83.10;;;;;;5014178;28;20018;-83
2023/08/25 06:08:26;;;;;;;3.17;2.47;;;22.90;83.00;;;;;;5014986;28;20022;-83
2023/08/25 06:10:52;;;;;;;4.13;3.38;;;23.00;83.00;;;;;;5008030;28;20108;-82
2023/08/25 06:13:18;;;;;;;5.10;3.50;;;23.00;82.90;;;;;;5015089;28;20038;-82
2023/08/25 06:15:46;;;;;;;4.97;2.80;;;23.00;82.90;;;;;;5019519;28;20472;-82
2023/08/25 06:18:12;;;;;;;5.60;3.17;;;22.90;83.00;;;;;;5010913;28;20030;-83
2023/08/25 06:20:41;;;;;;;5.72;3.00;;;22.90;83.00;;;;;;4995139;28;20500;-82
2023/08/25 06:23:07;;;;;;;4.57;3.22;;;23.00;83.00;;;;;;5025893;28;20038;-82
2023/08/25 06:25:33;;;;;;;3.58;2.83;;;23.00;83.10;;;;;;5010025;28;20037;-76
2023/08/25 06:27:59;;;;;;;3.97;2.17;;;23.00;83.20;;;;;;5013955;28;20037;-76
2023/08/25 06:30:29;;;;;;;3.88;2.70;;;23.00;83.10;;;;;;5011204;28;20037;-76
2023/08/25 06:32:55;;;;;;;5.25;3.15;;;23.00;83.10;;;;;;5009890;28;20110;-76
2023/08/25 06:35:22;;;;;;;4.50;2.72;;;23.00;83.00;;;;;;5012580;28;20030;-76
2023/08/25 06:37:48;;;;;;;3.97;3.45;;;23.00;83.00;;;;;;5026213;28;20055;-76
2023/08/25 06:40:14;;;;;;;4.20;2.83;;;23.00;83.10;;;;;;5011059;28;20448;-76
2023/08/25 06:42:40;;;;;;;4.25;3.20;;;22.90;83.10;;;;;;5009712;28;20354;-76
2023/08/25 06:45:07;;;;;;;3.70;2.40;;;23.00;83.30;;;;;;5011028;28;20115;-76
2023/08/25 06:47:34;;;;;;;5.45;3.05;;;23.00;83.30;;;;;;5016749;28;20113;-76
2023/08/25 06:50:00;;;;;;;5.53;3.58;;;23.00;83.30;;;;;;4994517;28;20168;-82
2023/08/25 06:52:26;;;;;;;3.33;2.70;;;23.00;83.20;;;;;;5011219;28;20032;-82
2023/08/25 06:54:52;;;;;;;3.88;2.70;;;23.00;83.30;;;;;;5009385;28;20128;-75
2023/08/25 06:57:17;;;;;;;5.97;3.85;;;23.00;83.30;;;;;;4992220;28;20041;-75
2023/08/25 06:59:44;;;;;;;4.70;3.67;;;23.00;83.40;;;;;;4995862;28;20034;-82
2023/08/25 07:02:10;;;;;;;5.50;2.40;;;22.90;83.40;;;;;;5001657;28;20046;-82
2023/08/25 07:04:35;;;;;;;5.45;3.40;;;23.00;83.40;;;;;;5015257;28;20045;-82
2023/08/25 07:07:01;;;;;;;4.47;2.78;;;22.90;83.50;;;;;;5007005;28;20034;-83
2023/08/25 07:09:28;;;;;;;5.95;3.22;;;22.90;83.60;;;;;;5004483;28;20433;-82
2023/08/25 07:11:54;;;;;;;5.30;3.42;;;22.90;83.60;;;;;;5029127;28;20084;-82
2023/08/25 07:14:20;;;;;;;5.20;2.80;;;22.80;83.70;;;;;;5012361;28;20400;-82
2023/08/25 07:16:45;;;;;;;5.75;3.78;;;22.80;83.80;;;;;;5010411;28;20033;-82
2023/08/25 07:19:11;;;;;;;4.85;3.10;;;22.80;83.80;;;;;;5011397;28;20029;-82
2023/08/25 07:21:37;;;;;;;4.05;2.97;;;22.80;83.90;;;;;;5016035;28;20083;-82
2023/08/25 07:24:03;;;;;;;20.23;2.90;;;22.80;83.90;;;;;;5014482;28;20420;-75
2023/08/25 07:26:29;;;;;;;4.28;2.80;;;22.80;84.00;;;;;;5015010;28;20022;-75
2023/08/25 07:28:55;;;;;;;6.43;3.03;;;22.80;83.90;;;;;;5013982;28;20078;-75
2023/08/25 07:31:20;;;;;;;5.63;3.00;;;22.80;83.90;;;;;;5012455;28;20034;-76
2023/08/25 07:33:46;;;;;;;6.78;4.10;;;22.80;83.90;;;;;;5011200;28;20030;-75
2023/08/25 07:36:12;;;;;;;11.00;3.63;;;22.80;84.00;;;;;;5008525;28;20029;-82
2023/08/25 07:38:38;;;;;;;3.63;2.50;;;22.80;84.00;;;;;;5007231;28;20083;-82
2023/08/25 07:41:04;;;;;;;6.13;3.90;;;22.80;83.90;;;;;;5003940;28;20057;-83
2023/08/25 07:43:30;;;;;;;5.30;3.28;;;22.80;83.90;;;;;;4989794;28;20084;-82
2023/08/25 07:45:55;;;;;;;5.43;3.90;;;22.90;83.90;;;;;;5016394;28;20025;-76
2023/08/25 07:48:23;;;;;;;6.00;3.78;;;22.90;83.90;;;;;;5018751;28;20040;-75
2023/08/25 07:50:49;;;;;;;5.00;3.40;;;22.90;83.80;;;;;;5022236;28;20116;-75
2023/08/25 07:53:15;;;;;;;3.92;2.60;;;22.90;83.90;;;;;;5006562;28;20644;-75
2023/08/25 07:55:41;;;;;;;5.80;3.45;;;22.90;83.90;;;;;;5008527;28;20037;-75
2023/08/25 07:58:07;;;;;;;4.90;2.83;;;22.90;84.00;;;;;;5000285;28;20034;-75
2023/08/25 08:00:34;;;;;;;4.78;2.83;;;22.90;84.00;;;;;;5015751;28;20042;-75
2023/08/25 08:03:00;;;;;;;7.13;3.88;;;22.90;84.00;;;;;;5020137;28;20404;-75
2023/08/25 08:05:26;;;;;;;5.00;3.40;;;23.00;83.90;;;;;;5019979;28;20030;-75
2023/08/25 08:07:52;;;;;;;4.28;3.10;;;23.00;83.90;;;;;;5014054;28;20028;-75
2023/08/25 08:10:17;;;;;;;6.15;3.67;;;23.00;83.90;;;;;;5019437;28;20025;-75
2023/08/25 08:12:44;;;;;;;4.88;2.78;;;23.00;84.00;;;;;;5000578;28;20029;-75
2023/08/25 08:15:10;;;;;;;5.38;3.35;;;23.00;84.00;;;;;;5013832;28;20088;-75
2023/08/25 08:17:36;;;;;;;4.10;2.92;;;23.00;84.00;;;;;;5016548;28;20082;-75
2023/08/25 08:20:05;;;;;;;4.07;2.65;;;23.00;84.00;;;;;;5022173;28;20030;-75
2023/08/25 08:22:31;;;;;;;5.07;3.47;;;23.00;84.60;;;;;;5014064;28;20095;-83
2023/08/25 08:24:57;;;;;;;4.00;2.85;;;22.90;84.10;;;;;;5013039;28;20034;-82
2023/08/25 08:27:22;;;;;;;5.10;3.17;;;22.90;84.20;;;;;;4979569;28;20420;-82
2023/08/25 08:29:48;;;;;;;5.25;3.35;;;22.90;84.20;;;;;;5010486;28;20431;-81
2023/08/25 08:32:14;;;;;;;6.45;3.53;;;22.80;84.20;;;;;;5010345;28;20125;-78
2023/08/25 08:34:41;;;;;;;5.25;3.50;;;22.80;84.40;;;;;;5011214;28;20045;-78
2023/08/25 08:37:06;;;;;;;4.95;3.20;;;22.70;84.60;;;;;;5012664;28;20100;-78
2023/08/25 08:39:33;;;;;;;5.43;3.28;;;22.70;84.80;;;;;;5010344;28;20444;-73
2023/08/25 08:42:03;;;;;;;3.72;2.65;;;22.60;84.90;;;;;;5011576;28;20025;-73
2023/08/25 08:44:35;;;;;;;5.30;2.72;;;22.70;85.00;;;;;;5012161;28;20072;-76
2023/08/25 08:47:03;;;;;;;6.72;4.03;;;22.70;85.00;;;;;;5012074;28;20057;-76
2023/08/25 08:49:30;;;;;;;4.75;3.50;;;22.70;85.00;;;;;;5006877;28;20152;-78
2023/08/25 08:51:58;;;;;;;5.03;2.92;;;22.70;85.00;;;;;;5019062;28;20034;-71
2023/08/25 08:54:27;;;;;;;5.47;2.67;;;22.80;85.00;;;;;;5019466;28;20037;-72
2023/08/25 08:56:54;;;;;;;4.95;2.70;;;22.80;84.90;;;;;;5011311;28;20053;-72
2023/08/25 08:59:20;;;;;;;6.40;3.60;;;22.80;84.80;;;;;;5019465;28;20060;-71
2023/08/25 09:01:48;;;;;;;6.63;4.25;;;22.80;84.90;;;;;;5008786;28;20128;-72
2023/08/25 09:04:18;;;;;;;5.68;3.83;;;22.70;85.00;;;;;;5008910;28;20508;-72
2023/08/25 09:06:46;;;;;;;5.55;4.13;;;22.70;85.10;;;;;;5004713;28;20022;-71
2023/08/25 09:09:14;;;;;;;11.55;4.15;;;22.60;85.10;;;;;;5008649;28;20034;-78
2023/08/25 09:11:40;;;;;;;7.15;3.60;;;22.60;85.20;;;;;;5010199;28;20026;-70
2023/08/25 09:14:07;;;;;;;5.25;3.10;;;22.60;85.30;;;;;;5004796;28;20052;-72
2023/08/25 09:16:35;;;;;;;5.25;3.95;;;22.60;85.40;;;;;;5013706;28;20030;-78
2023/08/25 09:19:05;;;;;;;7.35;4.68;;;22.60;85.30;;;;;;5005510;28;20044;-77
2023/08/25 09:21:31;;;;;;;7.15;4.30;;;22.50;85.20;;;;;;5003430;28;20508;-70
2023/08/25 09:24:02;;;;;;;5.40;3.47;;;22.50;85.30;;;;;;5004025;28;20036;-71
2023/08/25 09:26:35;;;;;;;3.65;2.80;;;22.50;85.20;;;;;;5012084;28;20105;-70
2023/08/25 09:29:01;;;;;;;4.57;2.97;;;22.50;85.20;;;;;;5004729;28;20469;-78
2023/08/25 09:31:28;;;;;;;4.45;3.08;;;22.50;85.00;;;;;;5001493;28;20034;-78
2023/08/25 09:34:02;;;;;;;3.80;2.50;;;22.50;85.00;;;;;;5001959;28;20022;-77
2023/08/25 09:36:29;;;;;;;3.63;2.70;;;22.50;84.90;;;;;;5006259;28;20041;-78
2023/08/25 09:38:55;;;;;;;5.75;3.47;;;22.50;85.00;;;;;;5003278;28;20022;-77
2023/08/25 09:41:28;;;;;;;4.28;3.13;;;22.50;85.00;;;;;;5010826;28;20032;-77
2023/08/25 09:43:58;;;;;;;3.28;2.20;;;22.50;85.00;;;;;;5008589;28;20123;-78
2023/08/25 09:46:31;;;;;;;2.95;2.63;;;22.50;85.00;;;;;;5002752;28;20062;-72
2023/08/25 09:49:05;;;;;;;2.78;1.75;;;22.50;85.00;;;;;;5004909;28;20038;-77
2023/08/25 09:51:42;;;;;;;3.35;2.30;;;22.50;85.00;;;;;;5014973;28;20559;-78
2023/08/25 09:54:13;;;;;;;3.53;2.20;;;22.50;85.00;;;;;;5005407;28;20037;-73
2023/08/25 09:56:43;;;;;;;5.65;3.47;;;22.50;85.10;;;;;;5030310;28;20076;-78
2023/08/25 09:59:10;;;;;;;2.85;1.90;;;22.40;85.10;;;;;;4974730;28;20113;-73
2023/08/25 10:01:38;;;;;;;4.18;2.47;;;22.40;85.10;;;;;;5011605;28;20042;-75
2023/08/25 10:04:05;;;;;;;3.10;2.05;;;22.30;85.00;;;;;;5012075;28;20040;-72
2023/08/25 10:06:32;;;;;;;2.22;1.80;;;22.30;85.10;;;;;;5014030;28;20034;-70
2023/08/25 10:09:01;;;;;;;3.58;1.90;;;22.40;85.20;;;;;;4998224;28;20030;-78
2023/08/25 10:11:29;;;;;;;1.88;1.30;;;22.40;85.00;;;;;;5011891;28;20480;-76
2023/08/25 10:13:56;;;;;;;2.88;1.27;;;22.40;84.90;;;;;;5011420;28;20113;-71
2023/08/25 10:16:26;;;;;;;4.68;1.60;;;22.50;84.70;;;;;;5017349;28;20026;-71
2023/08/25 10:18:55;;;;;;;2.85;1.85;;;22.50;84.70;;;;;;5014803;28;20025;-78
2023/08/25 10:21:22;;;;;;;2.97;1.23;;;22.50;84.60;;;;;;5015201;28;20116;-76
2023/08/25 10:23:50;;;;;;;1.67;1.10;;;22.40;84.60;;;;;;4991685;28;20067;-73
2023/08/25 10:26:16;;;;;;;2.58;1.58;;;22.40;84.60;;;;;;5002262;28;20042;-73
2023/08/25 10:28:44;;;;;;;1.90;1.70;;;22.30;84.60;;;;;;5008143;28;20120;-77
2023/08/25 10:31:11;;;;;;;2.45;1.77;;;22.30;84.70;;;;;;5013989;28;20041;-78
2023/08/25 10:33:51;;;;;;;1.73;1.10;;;22.30;84.80;;;;;;5013265;28;20141;-77
2023/08/25 10:39:45;;;;;;;1.50;1.40;;;23.00;84.10;;;;;;5013998;28;20041;-77
2023/08/25 10:42:11;;;;;;;;;;;23.30;83.50;;;;;;5007464;28;20410;-73
2023/08/25 10:44:41;;;;;;;2.55;1.85;;;23.50;83.70;;;;;;5011341;28;20226;-74
2023/08/25 10:47:07;;;;;;;2.38;2.17;;;23.70;82.60;;;;;;5037884;28;20030;-78
2023/08/25 10:49:39;;;;;;;1.55;1.17;;;23.80;82.40;;;;;;5022829;28;20481;-73
2023/08/25 10:52:13;;;;;;;1.92;1.58;;;24.00;81.90;;;;;;5010388;28;20049;-73
2023/08/25 10:54:41;;;;;;;0.90;0.90;;;24.10;81.60;;;;;;5003260;28;20029;-74
2023/08/25 10:57:29;;;;;;;1.77;1.30;;;24.20;81.70;;;;;;5009309;28;20048;-73
2023/08/25 10:59:56;;;;;;;1.77;1.55;;;24.30;81.50;;;;;;5009547;28;20397;-75
2023/08/25 11:02:37;;;;;;;1.52;1.42;;;24.50;81.30;;;;;;5013770;28;20038;-75
2023/08/25 11:05:34;;;;;;;1.45;1.20;;;24.40;80.20;;;;;;5013605;28;20029;-75
2023/08/25 11:08:27;;;;;;;1.58;1.10;;;24.30;80.70;;;;;;5012912;28;20121;-75
2023/08/25 11:11:10;;;;;;;1.77;1.40;;;24.30;81.00;;;;;;5009698;28;20037;-71
2023/08/25 11:13:39;;;;;;;2.28;1.83;;;24.10;80.70;;;;;;5021841;28;20048;-71
2023/08/25 11:16:09;;;;;;;2.85;2.17;;;23.90;81.00;;;;;;5012293;28;20018;-73
2023/08/25 11:18:35;;;;;;;1.45;1.30;;;23.80;81.80;;;;;;5007351;28;20030;-74
2023/08/25 11:21:02;;;;;;;1.77;1.45;;;23.70;82.10;;;;;;5007184;28;20504;-74
2023/08/25 11:23:39;;;;;;;2.45;1.67;;;23.60;82.00;;;;;;5005292;28;20568;-74
2023/08/25 11:26:06;;;;;;;2.08;1.10;;;23.50;81.90;;;;;;5025585;28;20038;-77
2023/08/25 11:28:32;;;;;;;1.63;1.40;;;23.40;82.40;;;;;;5013918;28;20099;-78
2023/08/25 11:30:58;;;;;;;1.88;1.63;;;23.30;82.40;;;;;;5012267;28;20109;-78
2023/08/25 11:33:25;;;;;;;2.35;1.30;;;23.30;82.60;;;;;;5009518;28;20089;-78
2023/08/25 11:35:53;;;;;;;2.35;1.67;;;23.30;82.70;;;;;;5025726;28;20061;-73
2023/08/25 11:38:19;;;;;;;2.47;1.90;;;23.30;82.60;;;;;;5028051;28;20026;-78
2023/08/25 11:40:45;;;;;;;2.03;1.75;;;23.30;82.60;;;;;;4995902;28;20523;-78
2023/08/25 11:43:12;;;;;;;3.10;1.58;;;23.30;82.70;;;;;;5009878;28;20108;-78
2023/08/25 11:45:38;;;;;;;2.15;1.95;;;23.30;83.30;;;;;;5006936;28;20029;-78
2023/08/25 11:48:22;;;;;;;2.22;1.95;;;23.40;82.80;;;;;;5033620;28;20033;-78
2023/08/25 11:50:48;;;;;;;3.70;1.80;;;23.40;82.60;;;;;;5031850;28;20127;-78
2023/08/25 11:53:14;;;;;;;2.85;2.22;;;23.30;82.70;;;;;;5032752;28;20025;-78
2023/08/25 11:55:41;;;;;;;3.08;1.95;;;23.30;82.70;;;;;;5013041;28;20029;-78
2023/08/25 11:58:09;;;;;;;2.10;1.80;;;23.30;82.80;;;;;;5013683;28;20018;-78
2023/08/25 12:00:38;;;;;;;4.22;1.80;;;23.30;82.60;;;;;;5013303;28;20037;-76
2023/08/25 12:03:05;;;;;;;2.72;2.30;;;23.30;82.70;;;;;;5010266;28;20129;-72
2023/08/25 12:05:35;;;;;;;2.45;2.00;;;23.20;82.70;;;;;;5008727;28;20477;-74
2023/08/25 12:08:01;;;;;;;3.67;2.50;;;23.10;82.90;;;;;;5018045;28;20070;-78
2023/08/25 12:10:27;;;;;;;2.60;2.00;;;23.00;83.10;;;;;;5012849;28;20045;-74
2023/08/25 12:12:53;;;;;;;2.55;1.90;;;23.00;83.20;;;;;;5009240;28;20036;-72
2023/08/25 12:15:19;;;;;;;1.98;1.67;;;23.00;83.30;;;;;;5012676;28;20040;-72
2023/08/25 12:17:47;;;;;;;2.40;1.67;;;23.00;83.40;;;;;;5033011;28;20033;-72
2023/08/25 12:20:17;;;;;;;3.60;2.15;;;23.00;83.40;;;;;;5008615;28;20030;-74
2023/08/25 12:22:50;;;;;;;3.00;2.15;;;22.90;83.40;;;;;;5011331;28;20030;-79
2023/08/25 12:32:00;;;;;;;4.32;2.95;;;22.90;83.80;;;;;;5014213;28;20029;-74
2023/08/25 12:34:26;;;;;;;8.02;3.35;;;22.80;83.90;;;;;;5012322;28;20690;-74
2023/08/25 12:36:52;;;;;;;3.40;2.30;;;22.90;83.90;;;;;;5023149;28;20030;-78
2023/08/25 12:39:20;;;;;;;6.40;4.22;;;22.90;83.90;;;;;;5020705;28;20038;-75
2023/08/25 12:41:46;;;;;;;5.88;3.45;;;22.90;83.80;;;;;;5008262;28;20100;-74
2023/08/25 12:44:12;;;;;;;4.95;3.33;;;22.90;83.80;;;;;;5010219;28;20512;-75
2023/08/25 12:46:37;;;;;;;4.00;3.17;;;22.80;83.80;;;;;;5017201;28;20022;-74
2023/08/25 12:49:04;;;;;;;2.70;2.10;;;22.80;83.90;;;;;;5008697;28;20065;-74
2023/08/25 12:51:30;;;;;;;3.30;2.53;;;22.90;84.00;;;;;;5015553;28;20030;-74
2023/08/25 12:53:56;;;;;;;4.22;2.75;;;22.90;83.80;;;;;;5019176;28;20053;-79
2023/08/25 12:56:23;;;;;;;5.80;3.55;;;23.00;83.90;;;;;;5016618;28;20026;-74
2023/08/25 12:58:55;;;;;;;4.85;3.33;;;23.00;83.70;;;;;;5011260;28;20022;-75
2023/08/25 13:01:22;;;;;;;3.67;3.08;;;23.10;83.60;;;;;;5016000;28;20097;-74
2023/08/25 13:03:48;;;;;;;3.28;2.40;;;23.20;83.50;;;;;;5018152;28;20052;-74